Time;durP1;ratioP1;P1;durP2;ratioP2;P2;SDS_P1;SDS_P2;PMS_P1;PMS_P2;Temp;Humidity;BMP_temperature;BMP_pressure;BME280_temperature;BME280_humidity;BME280_pressure;Samples;Min_cycle;Max_cycle;Signal;HPM_P1;HPM_P2
2024/04/23 00:00:28;;;;;;;0.20;0.10;;;;;;;2.19;96.42;100657.34;5453660;26;20470;-46
2024/04/23 00:02:55;;;;;;;0.30;0.10;;;;;;;2.13;96.36;100662.53;5449623;26;21013;-47
2024/04/23 00:05:22;;;;;;;0.20;0.10;;;;;;;2.06;96.34;100665.97;5454862;26;20537;-46
2024/04/23 00:07:49;;;;;;;0.20;0.10;;;;;;;2.08;96.27;100653.75;5456127;26;20534;-47
2024/04/23 00:10:15;;;;;;;0.27;0.10;;;;;;;1.98;96.45;100662.38;5425730;26;20486;-47
2024/04/23 00:12:42;;;;;;;0.20;0.10;;;;;;;2.07;96.80;100654.63;5439076;26;20512;-47
2024/04/23 00:15:08;;;;;;;0.30;0.10;;;;;;;2.11;96.88;100668.63;5453464;26;20477;-47
2024/04/23 00:17:35;;;;;;;0.23;0.17;;;;;;;2.06;96.86;100666.84;5453994;26;21065;-47
2024/04/23 00:20:02;;;;;;;0.30;0.10;;;;;;;2.06;97.08;100658.09;5453442;26;20485;-47
2024/04/23 00:22:28;;;;;;;0.20;0.10;;;;;;;1.85;96.94;100660.44;5453657;26;20820;-47
2024/04/23 00:24:55;;;;;;;0.20;0.10;;;;;;;1.91;96.85;100658.78;5453049;26;20526;-47
2024/04/23 00:27:22;;;;;;;0.20;0.20;;;;;;;1.88;96.80;100658.75;5453388;26;20470;-47
2024/04/23 00:29:48;;;;;;;0.27;0.17;;;;;;;1.87;96.94;100659.59;5451576;26;20614;-47
2024/04/23 00:32:15;;;;;;;0.23;0.13;;;;;;;1.84;96.78;100651.72;5439221;26;21067;-47
2024/04/23 00:34:41;;;;;;;0.30;0.10;;;;;;;1.98;96.78;100642.28;5451692;26;20482;-47
2024/04/23 00:37:08;;;;;;;0.20;0.10;;;;;;;2.15;96.54;100636.34;5453274;26;20474;-47
2024/04/23 00:39:34;;;;;;;0.20;0.10;;;;;;;2.10;96.96;100641.53;5453000;26;20556;-47
2024/04/23 00:42:01;;;;;;;0.30;0.20;;;;;;;2.44;95.90;100642.75;5453228;26;20556;-47
2024/04/23 00:44:27;;;;;;;0.30;0.10;;;;;;;1.97;96.61;100639.63;5452981;26;20561;-46
2024/04/23 00:46:55;;;;;;;0.30;0.10;;;;;;;2.19;96.32;100633.75;5453244;26;20530;-47
2024/04/23 00:49:22;;;;;;;0.20;0.10;;;;;;;2.05;96.14;100632.72;5452845;26;21127;-48
2024/04/23 00:51:50;;;;;;;0.20;0.10;;;;;;;2.10;96.62;100627.56;5453191;26;20553;-47
2024/04/23 00:54:18;;;;;;;0.20;0.10;;;;;;;1.95;96.37;100626.50;5452862;26;20489;-46
2024/04/23 00:56:45;;;;;;;0.20;0.10;;;;;;;1.89;96.20;100626.44;5453122;26;20588;-47
2024/04/23 00:59:15;;;;;;;0.30;0.10;;;;;;;1.84;96.14;100629.88;5452869;26;21066;-46
2024/04/23 01:01:46;;;;;;;0.20;0.10;;;;;;;1.82;96.60;100634.22;5447067;26;20475;-47
2024/04/23 01:04:13;;;;;;;0.20;0.10;;;;;;;1.74;96.44;100628.88;5453361;26;20481;-47
2024/04/23 01:06:40;;;;;;;3.23;2.20;;;;;;;1.75;98.04;100623.63;5453365;26;20465;-46
2024/04/23 01:09:07;;;;;;;0.20;0.10;;;;;;;1.82;97.50;100623.72;5441803;26;20847;-47
2024/04/23 01:11:34;;;;;;;0.30;0.20;;;;;;;1.68;97.20;100627.06;5421540;26;20478;-46
2024/04/23 01:14:03;;;;;;;0.20;0.10;;;;;;;1.69;96.93;100633.19;5453452;26;20563;-47
2024/04/23 01:16:35;;;;;;;0.20;0.10;;;;;;;1.91;96.64;100636.94;5453650;26;20466;-47
2024/04/23 01:19:03;;;;;;;0.20;0.10;;;;;;;1.83;96.89;100634.22;5454061;26;20489;-47
2024/04/23 01:21:38;;;;;;;0.20;0.10;;;;;;;1.80;97.05;100641.19;5439659;26;20477;-46
2024/04/23 01:24:10;;;;;;;0.20;0.20;;;;;;;1.68;98.16;100634.91;5424518;26;20473;-47
2024/04/23 01:26:38;;;;;;;0.20;0.10;;;;;;;1.76;97.63;100629.75;5453420;26;20533;-46
2024/04/23 01:29:05;;;;;;;0.20;0.10;;;;;;;1.54;100.00;100626.00;5453298;26;20470;-47
2024/04/23 01:31:31;;;;;;;0.20;0.13;;;;;;;1.79;99.72;100632.44;5448883;26;20522;-47
2024/04/23 01:33:58;;;;;;;0.20;0.10;;;;;;;1.80;99.26;100621.09;5440012;26;20477;-47
2024/04/23 01:36:25;;;;;;;0.20;0.20;;;;;;;1.81;98.86;100628.09;5381225;26;20472;-47
2024/04/23 01:38:53;;;;;;;0.20;0.10;;;;;;;1.68;98.43;100634.03;5429654;26;21018;-47
2024/04/23 01:41:21;;;;;;;0.20;0.10;;;;;;;1.74;98.65;100626.25;5452205;26;20524;-47
2024/04/23 01:43:48;;;;;;;0.20;0.10;;;;;;;1.62;98.42;100626.97;5451934;26;20558;-46
2024/04/23 01:46:16;;;;;;;0.20;0.10;;;;;;;1.52;98.23;100630.34;5452132;26;20611;-47
2024/04/23 01:48:43;;;;;;;0.20;0.10;;;;;;;1.59;98.18;100626.06;5452050;26;20458;-47
2024/04/23 01:51:10;;;;;;;0.20;0.10;;;;;;;1.55;98.06;100626.88;5452137;26;20595;-46
2024/04/23 01:53:36;;;;;;;0.20;0.10;;;;;;;1.57;98.17;100626.03;5452649;26;20485;-47
2024/04/23 01:56:03;;;;;;;0.20;0.10;;;;;;;1.60;97.82;100620.81;5455612;26;20458;-46
2024/04/23 01:58:30;;;;;;;0.20;0.10;;;;;;;1.57;97.85;100622.53;5455346;26;20533;-46
2024/04/23 02:00:57;;;;;;;0.20;0.10;;;;;;;1.57;97.52;100619.91;5455404;26;21041;-47
2024/04/23 02:03:25;;;;;;;0.30;0.10;;;;;;;1.44;97.45;100624.09;5450707;26;20533;-46
2024/04/23 02:05:54;;;;;;;0.20;0.20;;;;;;;1.63;97.74;100620.84;5440467;26;20523;-46
2024/04/23 02:08:21;;;;;;;0.20;0.10;;;;;;;1.41;97.67;100619.72;5399429;26;20997;-47
2024/04/23 02:10:48;;;;;;;0.30;0.10;;;;;;;1.39;97.92;100626.69;5432583;26;20527;-47
2024/04/23 02:13:15;;;;;;;0.20;0.10;;;;;;;1.40;97.67;100620.56;5448986;26;20482;-47
2024/04/23 02:15:41;;;;;;;0.20;0.10;;;;;;;1.37;98.15;100614.41;5437302;26;20586;-47
2024/04/23 02:18:08;;;;;;;0.20;0.10;;;;;;;1.32;98.57;100611.72;5449799;26;20470;-46
2024/04/23 02:20:34;;;;;;;0.20;0.10;;;;;;;1.44;97.93;100616.25;5436753;26;20474;-47
2024/04/23 02:23:01;;;;;;;0.20;0.10;;;;;;;1.39;97.83;100610.09;5449818;26;20525;-46
2024/04/23 02:25:27;;;;;;;0.20;0.20;;;;;;;1.46;98.04;100604.06;5455411;26;20474;-47
2024/04/23 02:27:54;;;;;;;0.20;0.10;;;;;;;1.35;97.34;100606.53;5455066;26;20533;-46
2024/04/23 02:30:21;;;;;;;0.20;0.10;;;;;;;1.56;97.77;100610.31;5435555;26;20454;-46
2024/04/23 02:32:47;;;;;;;0.20;0.10;;;;;;;1.35;97.55;100605.63;5411286;26;20476;-46
2024/04/23 02:35:14;;;;;;;0.20;0.20;;;;;;;1.38;97.02;100609.22;5403640;26;20535;-47
2024/04/23 02:37:40;;;;;;;0.20;0.10;;;;;;;1.31;97.33;100602.09;5419277;26;20524;-47
2024/04/23 02:40:07;;;;;;;0.20;0.10;;;;;;;1.11;96.79;100607.06;5439913;26;20575;-47
2024/04/23 02:42:34;;;;;;;0.20;0.10;;;;;;;1.09;97.35;100600.91;5437310;26;20884;-47
2024/04/23 02:45:01;;;;;;;0.20;0.10;;;;;;;1.20;96.92;100598.47;5404826;26;20523;-46
2024/04/23 02:47:27;;;;;;;0.20;0.10;;;;;;;1.13;96.96;100596.63;5452367;26;20540;-47
2024/04/23 02:49:54;;;;;;;0.20;0.20;;;;;;;1.02;96.87;100606.06;5433416;26;20462;-47
2024/04/23 02:52:20;;;;;;;0.30;0.20;;;;;;;1.01;96.46;100601.69;5418815;26;20884;-46
2024/04/23 02:54:47;;;;;;;0.20;0.10;;;;;;;0.98;96.97;100599.03;5419025;26;20474;-47
2024/04/23 02:57:13;;;;;;;0.20;0.10;;;;;;;0.95;96.79;100605.06;5418862;26;20539;-46
2024/04/23 02:59:40;;;;;;;0.20;0.10;;;;;;;0.99;96.64;100595.53;5396768;26;20460;-47
2024/04/23 03:02:08;;;;;;;0.20;0.10;;;;;;;1.05;96.64;100596.50;5440046;26;20471;-47
2024/04/23 03:04:34;;;;;;;0.20;0.10;;;;;;;1.11;96.64;100598.34;5441005;26;20845;-46
2024/04/23 03:07:01;;;;;;;0.20;0.10;;;;;;;0.85;96.67;100601.44;5408471;26;20528;-47
2024/04/23 03:09:28;;;;;;;0.20;0.10;;;;;;;0.93;95.66;100600.66;5393551;26;20547;-47
2024/04/23 03:11:55;;;;;;;0.20;0.10;;;;;;;1.08;95.89;100593.91;5418493;26;20527;-47
2024/04/23 03:14:21;;;;;;;0.20;0.10;;;;;;;0.96;96.26;100604.25;5438752;26;20559;-46
2024/04/23 03:16:48;;;;;;;0.20;0.10;;;;;;;0.82;96.77;100598.78;5420489;26;20864;-47
2024/04/23 03:19:15;;;;;;;0.20;0.10;;;;;;;0.81;97.03;100607.47;5396657;26;20839;-46
2024/04/23 03:21:49;;;;;;;0.20;0.10;;;;;;;0.89;97.17;100607.59;5417756;26;20455;-47
2024/04/23 03:24:16;;;;;;;0.20;0.10;;;;;;;0.67;97.34;100605.47;5443193;26;20477;-48
2024/04/23 03:26:42;;;;;;;0.20;0.10;;;;;;;0.64;97.40;100594.97;5429071;26;20527;-46
2024/04/23 03:29:09;;;;;;;0.20;0.10;;;;;;;0.64;97.48;100605.44;5383726;26;20468;-47
2024/04/23 03:31:35;;;;;;;0.20;0.10;;;;;;;0.57;96.89;100607.97;5454606;26;20841;-47
2024/04/23 03:34:02;;;;;;;0.20;0.10;;;;;;;0.60;96.73;100604.53;5430008;26;20487;-47
2024/04/23 03:36:29;;;;;;;0.20;0.10;;;;;;;0.57;96.92;100607.97;5418253;26;20518;-47
2024/04/23 03:38:55;;;;;;;0.20;0.10;;;;;;;0.59;96.66;100605.38;5394572;26;20460;-47
2024/04/23 03:41:22;;;;;;;2.53;2.53;;;;;;;0.50;96.93;100605.22;5418490;26;20869;-49
2024/04/23 03:43:48;;;;;;;0.20;0.10;;;;;;;0.54;96.94;100607.00;5419511;26;21015;-47
2024/04/23 03:46:15;;;;;;;0.20;0.10;;;;;;;0.46;96.86;100613.88;5427905;26;20480;-47
2024/04/23 03:48:41;;;;;;;0.20;0.10;;;;;;;0.50;97.02;100611.31;5430948;26;20548;-47
2024/04/23 03:51:08;;;;;;;0.20;0.10;;;;;;;0.50;97.16;100608.72;5409386;26;20993;-47
2024/04/23 03:53:34;;;;;;;0.20;0.10;;;;;;;0.60;97.07;100614.97;5452505;26;20453;-47
2024/04/23 03:56:01;;;;;;;0.20;0.10;;;;;;;0.55;96.53;100611.41;5418294;26;20544;-47
2024/04/23 03:58:28;;;;;;;0.20;0.10;;;;;;;0.48;96.52;100620.00;5442120;26;20575;-47
2024/04/23 04:00:54;;;;;;;0.20;0.10;;;;;;;0.50;96.20;100610.44;5403094;26;20532;-47
2024/04/23 04:06:06;;;;;;;0.20;0.10;;;;;;;0.36;96.48;100609.31;5403757;26;20463;-48
2024/04/23 04:08:34;;;;;;;0.20;0.10;;;;;;;0.34;95.79;100616.25;5427601;26;20888;-47
2024/04/23 04:11:02;;;;;;;0.20;0.10;;;;;;;0.40;95.70;100614.63;5440641;26;20490;-47
2024/04/23 04:13:29;;;;;;;0.20;0.10;;;;;;;0.39;95.96;100614.59;5428106;26;20513;-47
2024/04/23 04:15:55;;;;;;;0.20;0.10;;;;;;;0.48;96.70;100609.53;5453332;26;21069;-47
2024/04/23 04:18:22;;;;;;;0.20;0.10;;;;;;;0.45;96.36;100613.00;5420074;26;20520;-48
2024/04/23 04:20:49;;;;;;;0.20;0.10;;;;;;;0.36;96.11;100614.56;5396740;26;20510;-47
2024/04/23 04:23:15;;;;;;;0.20;0.10;;;;;;;0.34;96.82;100622.38;5402164;26;20522;-48
2024/04/23 04:25:42;;;;;;;0.20;0.10;;;;;;;0.39;97.53;100611.97;5453874;26;20538;-46
2024/04/23 04:28:09;;;;;;;0.20;0.10;;;;;;;0.73;97.02;100608.22;5405240;26;20466;-47
2024/04/23 04:30:35;;;;;;;0.20;0.10;;;;;;;0.65;96.88;100621.16;5431630;26;20577;-48
2024/04/23 04:33:02;;;;;;;0.20;0.10;;;;;;;0.61;97.71;100618.47;5425981;26;20468;-47
2024/04/23 04:35:28;;;;;;;0.20;0.10;;;;;;;0.55;97.03;100612.28;5395131;26;20882;-47
2024/04/23 04:37:55;;;;;;;0.20;0.10;;;;;;;0.52;96.81;100609.59;5440772;26;20471;-47
2024/04/23 04:40:22;;;;;;;0.20;0.10;;;;;;;0.42;97.54;100609.44;5394393;26;20896;-47
2024/04/23 04:42:50;;;;;;;0.20;0.10;;;;;;;0.70;96.94;100614.28;5405434;26;20469;-47
2024/04/23 04:45:17;;;;;;;0.20;0.20;;;;;;;0.69;96.58;100616.88;5428904;26;21044;-47
2024/04/23 04:47:48;;;;;;;0.20;0.10;;;;;;;0.58;96.88;100620.19;5382052;26;20460;-48
2024/04/23 04:50:19;;;;;;;0.20;0.10;;;;;;;0.61;96.74;100623.72;5405595;26;20475;-47
2024/04/23 04:52:45;;;;;;;0.20;0.10;;;;;;;0.45;96.11;100622.56;5381842;26;20832;-47
2024/04/23 04:55:12;;;;;;;0.20;0.10;;;;;;;0.54;96.93;100620.97;5433439;26;21030;-48
2024/04/23 04:57:39;;;;;;;0.20;0.10;;;;;;;0.61;96.20;100623.72;5433257;26;20518;-47
2024/04/23 05:00:06;;;;;;;0.20;0.10;;;;;;;0.70;96.37;100613.41;5424844;26;20463;-48
2024/04/23 05:02:32;;;;;;;0.20;0.10;;;;;;;0.68;96.56;100618.59;5417017;26;20471;-47
2024/04/23 05:04:59;;;;;;;0.30;0.20;;;;;;;1.41;96.15;100606.63;5416559;26;20542;-47
2024/04/23 05:07:26;;;;;;;0.20;0.10;;;;;;;2.05;92.77;100603.88;5419536;26;21127;-47
2024/04/23 05:09:52;;;;;;;0.20;0.10;;;;;;;2.77;89.66;100613.34;5424577;26;20519;-47
2024/04/23 05:12:19;;;;;;;0.20;0.10;;;;;;;3.24;86.63;100607.53;5417013;26;20881;-47
2024/04/23 05:14:45;;;;;;;0.20;0.10;;;;;;;3.59;84.46;100605.13;5394884;26;20480;-48
2024/04/23 05:17:12;;;;;;;0.20;0.10;;;;;;;3.88;81.55;100605.25;5421531;26;20477;-48
2024/04/23 05:19:39;;;;;;;0.20;0.10;;;;;;;4.12;82.65;100602.69;5433063;26;20813;-48
2024/04/23 05:22:05;;;;;;;0.20;0.10;;;;;;;4.34;79.39;100600.97;5432929;26;20466;-49
2024/04/23 05:24:32;;;;;;;0.20;0.10;;;;;;;4.52;79.49;100609.75;5444033;26;20478;-47
2024/04/23 05:26:58;;;;;;;0.23;0.10;;;;;;;4.66;79.10;100610.63;5397465;26;20467;-47
2024/04/23 05:29:25;;;;;;;0.30;0.10;;;;;;;4.80;78.89;100603.66;5391683;26;20472;-48
2024/04/23 05:34:37;;;;;;;0.30;0.10;;;;;;;4.93;79.17;100613.28;5428498;26;20882;-47
2024/04/23 05:37:03;;;;;;;0.30;0.10;;;;;;;5.06;79.27;100609.75;5452298;26;20521;-48
2024/04/23 05:39:30;;;;;;;0.30;0.10;;;;;;;5.21;79.62;100611.53;5442871;26;20511;-47
2024/04/23 05:41:56;;;;;;;0.30;0.20;;;;;;;5.28;78.32;100607.09;5416398;26;20470;-47
2024/04/23 05:44:23;;;;;;;0.30;0.20;;;;;;;5.04;79.39;100610.63;5416303;26;20471;-47
2024/04/23 05:46:50;;;;;;;0.30;0.20;;;;;;;5.09;79.70;100614.16;5416354;26;20842;-47
2024/04/23 05:49:54;;;;;;;0.30;0.20;;;;;;;5.25;80.16;100604.47;5416385;26;20528;-47
2024/04/23 05:52:58;;;;;;;0.30;0.20;;;;;;;5.39;79.25;100604.44;5447976;26;20576;-47
2024/04/23 05:55:32;;;;;;;0.30;0.20;;;;;;;5.34;79.63;100604.44;5451703;26;20473;-48
2024/04/23 05:57:59;;;;;;;0.30;0.20;;;;;;;5.47;80.26;100615.81;5433632;26;20512;-48
2024/04/23 06:00:26;;;;;;;0.30;0.20;;;;;;;5.49;81.41;100604.44;5446674;26;20474;-47
2024/04/23 06:02:53;;;;;;;0.30;0.13;;;;;;;5.50;81.23;100616.72;5446738;26;20590;-48
2024/04/23 06:05:19;;;;;;;0.30;0.20;;;;;;;5.74;80.50;100625.41;5451403;26;20586;-48
2024/04/23 06:07:46;;;;;;;0.30;0.20;;;;;;;6.00;80.11;100623.59;5451863;26;20469;-47
2024/04/23 06:10:12;;;;;;;0.30;0.10;;;;;;;5.63;79.93;100618.44;5430236;26;20548;-47
2024/04/23 06:12:39;;;;;;;0.30;0.20;;;;;;;5.32;82.06;100620.25;5415617;26;20519;-48
2024/04/23 06:15:06;;;;;;;0.30;0.10;;;;;;;5.33;82.97;100616.75;5424760;26;20530;-47
2024/04/23 06:17:34;;;;;;;0.30;0.20;;;;;;;5.40;84.24;100611.47;5451410;26;20470;-47
2024/04/23 06:20:11;;;;;;;0.30;0.20;;;;;;;5.55;83.54;100616.69;5405563;26;20481;-48
2024/04/23 06:22:42;;;;;;;0.30;0.13;;;;;;;5.60;84.29;100609.63;5451160;26;20521;-48
2024/04/23 06:25:10;;;;;;;0.30;0.20;;;;;;;5.61;83.77;100620.19;5451207;26;20534;-48
2024/04/23 06:27:38;;;;;;;0.30;0.10;;;;;;;5.57;84.58;100614.94;5451120;26;20486;-47
2024/04/23 06:30:12;;;;;;;0.30;0.10;;;;;;;5.49;85.71;100609.69;5451185;26;20470;-48
2024/04/23 06:32:39;;;;;;;0.30;0.20;;;;;;;5.68;84.89;100607.00;5436095;26;20473;-48
2024/04/23 06:35:08;;;;;;;0.30;0.20;;;;;;;5.78;84.17;100611.34;5451096;26;20501;-47
2024/04/23 06:37:36;;;;;;;0.30;0.20;;;;;;;6.25;83.22;100611.16;5451000;26;20470;-48
2024/04/23 06:40:08;;;;;;;0.30;0.20;;;;;;;6.39;83.20;100608.41;5452605;26;20470;-47
2024/04/23 06:42:36;;;;;;;0.30;0.20;;;;;;;6.08;83.92;100613.88;5452860;26;20478;-47
2024/04/23 06:45:04;;;;;;;0.30;0.20;;;;;;;6.57;82.57;100605.63;5454731;26;20529;-48
2024/04/23 06:47:30;;;;;;;0.30;0.20;;;;;;;6.84;80.56;100600.16;5454504;26;20470;-48
2024/04/23 06:49:57;;;;;;;0.30;0.20;;;;;;;6.91;81.07;100602.75;5454570;26;20537;-48
2024/04/23 06:52:23;;;;;;;0.30;0.20;;;;;;;6.89;81.41;100600.13;5406547;26;20539;-48
2024/04/23 06:54:50;;;;;;;0.30;0.20;;;;;;;6.61;80.48;100599.47;5454316;26;20627;-48
2024/04/23 06:57:17;;;;;;;0.30;0.20;;;;;;;6.57;82.20;100597.72;5454041;26;20990;-47
2024/04/23 06:59:44;;;;;;;0.30;0.20;;;;;;;6.93;81.33;100598.31;5454357;26;20945;-47
2024/04/23 07:02:11;;;;;;;0.30;0.20;;;;;;;7.13;78.83;100591.09;5450441;26;20540;-48
2024/04/23 07:04:38;;;;;;;0.30;0.17;;;;;;;6.92;76.41;100594.81;5454137;26;20485;-49
2024/04/23 07:07:05;;;;;;;0.30;0.20;;;;;;;6.96;78.05;100599.16;5454085;26;20473;-47
2024/04/23 07:09:32;;;;;;;0.30;0.20;;;;;;;7.06;76.36;100595.56;5443015;26;20596;-48
2024/04/23 07:11:58;;;;;;;0.30;0.17;;;;;;;6.80;75.11;100600.19;5418244;26;20621;-47
2024/04/23 07:14:25;;;;;;;0.30;0.20;;;;;;;7.40;72.17;100584.63;5441196;26;21124;-49
2024/04/23 07:16:51;;;;;;;0.30;0.20;;;;;;;7.21;71.80;100589.25;5453932;26;21009;-48
2024/04/23 07:19:18;;;;;;;0.30;0.20;;;;;;;7.10;66.65;100585.81;5454187;26;20510;-48
2024/04/23 07:21:44;;;;;;;0.30;0.20;;;;;;;7.41;61.52;100586.41;5453753;26;20474;-47
2024/04/23 07:24:11;;;;;;;0.30;0.20;;;;;;;7.16;61.15;100588.44;5454179;26;20531;-48
2024/04/23 07:26:39;;;;;;;0.30;0.20;;;;;;;7.25;60.80;100585.66;5454031;26;20541;-47
2024/04/23 07:29:06;;;;;;;0.30;0.20;;;;;;;7.40;61.26;100577.59;5454001;26;20916;-50
2024/04/23 07:31:33;;;;;;;0.30;0.20;;;;;;;7.64;59.59;100567.59;5426358;26;20485;-47
2024/04/23 07:34:00;;;;;;;0.30;0.20;;;;;;;7.69;59.61;100571.97;5441991;26;20527;-48
2024/04/23 07:36:28;;;;;;;0.30;0.20;;;;;;;7.83;58.74;100570.91;5453714;26;21062;-47
2024/04/23 07:38:55;;;;;;;0.30;0.20;;;;;;;8.09;59.39;100566.16;5453498;26;20841;-48
2024/04/23 07:41:21;;;;;;;0.30;0.20;;;;;;;7.83;56.99;100573.56;5453834;26;20469;-48
2024/04/23 07:43:48;;;;;;;0.30;0.20;;;;;;;7.90;57.04;100570.81;5453610;26;20538;-48
2024/04/23 07:46:15;;;;;;;0.30;0.20;;;;;;;7.76;56.97;100571.88;5453900;26;20542;-48
2024/04/23 07:48:41;;;;;;;0.30;0.20;;;;;;;8.05;57.97;100566.19;5453513;26;20481;-48
2024/04/23 07:51:08;;;;;;;0.30;0.20;;;;;;;8.27;57.90;100568.53;5452722;26;20485;-49
2024/04/23 07:53:35;;;;;;;11.37;3.50;;;;;;;8.28;55.90;100564.09;5453451;26;20605;-49
2024/04/23 07:56:01;;;;;;;0.30;0.20;;;;;;;8.48;55.62;100561.16;5451992;26;20562;-48
2024/04/23 07:58:28;;;;;;;0.30;0.20;;;;;;;8.66;57.72;100563.56;5453101;26;20529;-48
2024/04/23 08:00:55;;;;;;;0.30;0.20;;;;;;;8.48;55.98;100559.41;5453586;26;20522;-48
2024/04/23 08:03:22;;;;;;;0.30;0.20;;;;;;;8.57;56.18;100563.69;5449923;26;20526;-49
2024/04/23 08:05:54;;;;;;;0.30;0.20;;;;;;;8.64;55.68;100568.00;5453879;26;20485;-50
2024/04/23 08:08:21;;;;;;;0.30;0.20;;;;;;;8.40;56.06;100563.97;5453298;26;20481;-50
2024/04/23 08:10:47;;;;;;;0.30;0.20;;;;;;;8.53;54.83;100569.94;5423722;26;20483;-50
2024/04/23 08:13:14;;;;;;;0.30;0.20;;;;;;;8.63;55.26;100560.06;5422464;26;20558;-50
2024/04/23 08:15:41;;;;;;;0.30;0.20;;;;;;;8.93;55.19;100556.03;5453229;26;20526;-50
2024/04/23 08:18:07;;;;;;;0.30;0.20;;;;;;;9.55;54.73;100552.19;5452704;26;20526;-50
2024/04/23 08:20:35;;;;;;;0.30;0.20;;;;;;;9.22;56.22;100555.50;5453232;26;20629;-51
2024/04/23 08:23:03;;;;;;;0.30;0.20;;;;;;;8.92;55.12;100556.94;5452983;26;20526;-49
2024/04/23 08:25:30;;;;;;;0.30;0.20;;;;;;;9.06;55.76;100552.25;5453096;26;20832;-50
2024/04/23 08:27:56;;;;;;;0.30;0.20;;;;;;;9.16;56.64;100554.69;5452993;26;20473;-50
2024/04/23 08:30:23;;;;;;;0.30;0.20;;;;;;;8.93;54.64;100551.59;5453007;26;20466;-50
2024/04/23 08:32:49;;;;;;;0.30;0.20;;;;;;;9.02;55.01;100550.53;5437120;26;20482;-50
2024/04/23 08:35:16;;;;;;;0.30;0.20;;;;;;;9.38;55.83;100543.69;5452896;26;20549;-51
2024/04/23 08:37:44;;;;;;;0.30;0.20;;;;;;;9.66;52.08;100539.56;5452667;26;20470;-50
2024/04/23 08:40:11;;;;;;;0.30;0.20;;;;;;;9.21;51.16;100554.63;5452967;26;20466;-50
2024/04/23 08:42:41;;;;;;;0.30;0.20;;;;;;;9.63;52.26;100552.03;5452866;26;20558;-50
2024/04/23 08:45:10;;;;;;;0.30;0.20;;;;;;;9.40;50.34;100545.41;5452774;26;20478;-50
2024/04/23 08:47:37;;;;;;;0.30;0.20;;;;;;;9.48;51.30;100537.31;5452676;26;21034;-50
2024/04/23 08:50:05;;;;;;;0.30;0.20;;;;;;;9.39;51.32;100538.34;5452732;26;20531;-50
2024/04/23 08:52:32;;;;;;;0.30;0.20;;;;;;;9.34;50.92;100537.56;5452388;26;20522;-50
2024/04/23 08:54:59;;;;;;;0.30;0.20;;;;;;;9.41;50.40;100535.66;5452618;26;20482;-50
2024/04/23 08:57:26;;;;;;;0.30;0.20;;;;;;;9.23;50.43;100528.94;5452235;26;20547;-50
2024/04/23 08:59:53;;;;;;;0.30;0.20;;;;;;;9.78;51.50;100533.13;5452631;26;20518;-50
2024/04/23 09:02:35;;;;;;;0.30;0.20;;;;;;;9.49;47.34;100528.44;5447209;26;20485;-50
2024/04/23 09:05:02;;;;;;;0.30;0.20;;;;;;;9.73;48.61;100537.63;5451643;26;20820;-50
2024/04/23 09:07:33;;;;;;;0.30;0.20;;;;;;;10.04;47.73;100530.78;5452566;26;20478;-50
2024/04/23 09:10:02;;;;;;;0.30;0.20;;;;;;;9.70;46.99;100537.72;5434200;26;20475;-50
2024/04/23 09:12:30;;;;;;;0.30;0.20;;;;;;;9.84;46.13;100534.75;5416282;26;20538;-50
2024/04/23 09:14:58;;;;;;;0.30;0.20;;;;;;;9.80;48.00;100531.31;5446374;26;20485;-50
2024/04/23 09:17:25;;;;;;;0.30;0.20;;;;;;;9.86;47.67;100530.28;5452213;26;20997;-50
2024/04/23 09:19:54;;;;;;;4.77;4.43;;;;;;;9.85;46.79;100525.88;5451895;26;20981;-50
2024/04/23 09:22:20;;;;;;;0.30;0.20;;;;;;;9.63;45.44;100526.38;5452105;26;20527;-50
2024/04/23 09:24:47;;;;;;;0.30;0.20;;;;;;;10.01;46.04;100511.41;5451699;26;20473;-50
2024/04/23 09:27:14;;;;;;;0.30;0.20;;;;;;;10.28;46.25;100523.16;5452120;26;20470;-50
2024/04/23 09:29:41;;;;;;;0.30;0.20;;;;;;;10.45;45.69;100521.00;5451810;26;20501;-50
2024/04/23 09:32:07;;;;;;;0.30;0.20;;;;;;;10.03;45.96;100515.75;5439454;26;20527;-50
2024/04/23 09:34:34;;;;;;;0.30;0.20;;;;;;;9.85;46.13;100513.50;5447731;26;20482;-50
2024/04/23 09:37:17;;;;;;;0.30;0.20;;;;;;;9.82;46.01;100516.22;5451960;26;20880;-50
2024/04/23 09:39:44;;;;;;;0.30;0.20;;;;;;;9.89;44.48;100514.31;5451821;26;20477;-50
2024/04/23 09:42:23;;;;;;;0.30;0.20;;;;;;;10.01;42.46;100506.94;5451635;26;20485;-50
2024/04/23 09:44:50;;;;;;;0.30;0.20;;;;;;;10.71;44.11;100499.09;5451912;26;21044;-50
2024/04/23 09:47:17;;;;;;;0.30;0.20;;;;;;;10.24;44.41;100498.47;5451362;26;21010;-50
2024/04/23 09:49:46;;;;;;;0.30;0.20;;;;;;;10.27;44.51;100501.03;5451732;26;20923;-50
2024/04/23 09:52:30;;;;;;;0.30;0.20;;;;;;;10.23;43.50;100498.50;5451502;26;20474;-49
2024/04/23 09:54:57;;;;;;;0.30;0.20;;;;;;;10.32;42.01;100488.53;5451661;26;20477;-50
2024/04/23 09:57:24;;;;;;;0.30;0.20;;;;;;;10.43;41.31;100490.06;5451453;26;20522;-50
2024/04/23 09:59:50;;;;;;;0.30;0.20;;;;;;;10.44;42.15;100476.75;5451345;26;20805;-50
2024/04/23 10:02:27;;;;;;;0.30;0.20;;;;;;;11.14;42.11;100469.53;5444616;26;20557;-50
2024/04/23 10:05:05;;;;;;;0.30;0.20;;;;;;;10.83;41.55;100472.19;5450956;26;20521;-50
2024/04/23 10:07:57;;;;;;;0.30;0.20;;;;;;;11.02;42.74;100463.69;5451584;26;21073;-50
2024/04/23 10:10:33;;;;;;;0.30;0.20;;;;;;;10.87;39.59;100459.66;5428041;26;20580;-50
2024/04/23 10:13:03;;;;;;;0.30;0.20;;;;;;;10.55;39.05;100463.16;5417390;26;20589;-52
2024/04/23 10:15:37;;;;;;;0.30;0.20;;;;;;;10.87;38.77;100462.31;5453983;26;21006;-50
2024/04/23 10:18:05;;;;;;;0.30;0.20;;;;;;;10.30;39.52;100454.94;5456352;26;20909;-50
2024/04/23 10:20:38;;;;;;;0.30;0.20;;;;;;;11.09;38.12;100452.81;5455019;26;20521;-50
2024/04/23 10:23:05;;;;;;;0.30;0.20;;;;;;;11.07;38.86;100459.09;5454600;26;20874;-50
2024/04/23 10:25:33;;;;;;;0.40;0.30;;;;;;;10.66;36.63;100455.78;5454944;26;20558;-50
2024/04/23 10:28:05;;;;;;;0.30;0.20;;;;;;;10.81;37.72;100447.38;5454793;26;20477;-50
2024/04/23 10:30:33;;;;;;;0.30;0.20;;;;;;;11.31;37.38;100446.91;5454942;26;20518;-50
2024/04/23 10:33:01;;;;;;;0.30;0.20;;;;;;;10.91;37.74;100451.56;5438272;26;20591;-50
2024/04/23 10:35:30;;;;;;;0.30;0.20;;;;;;;10.98;37.73;100445.16;5454904;26;20486;-50
2024/04/23 10:37:59;;;;;;;0.30;0.20;;;;;;;11.07;37.14;100443.16;5454589;26;20530;-50
2024/04/23 10:40:27;;;;;;;0.30;0.20;;;;;;;11.45;39.60;100434.94;5455026;26;20473;-50
2024/04/23 10:43:00;;;;;;;0.30;0.20;;;;;;;10.89;39.74;100445.41;5454902;26;20529;-52
2024/04/23 10:45:27;;;;;;;0.30;0.20;;;;;;;11.12;39.13;100442.13;5454277;26;20529;-49
2024/04/23 10:47:54;;;;;;;0.30;0.20;;;;;;;11.41;39.36;100432.41;5454578;26;20554;-50
2024/04/23 10:50:26;;;;;;;0.30;0.20;;;;;;;10.99;39.35;100430.06;5453068;26;20457;-50
2024/04/23 10:52:55;;;;;;;0.30;0.20;;;;;;;11.28;39.42;100427.44;5454569;26;21021;-50
2024/04/23 10:55:24;;;;;;;0.30;0.20;;;;;;;11.40;39.43;100425.34;5454251;26;20470;-49
2024/04/23 10:57:53;;;;;;;0.30;0.20;;;;;;;11.74;40.20;100420.72;5454567;26;20470;-49
2024/04/23 11:00:31;;;;;;;0.30;0.20;;;;;;;12.02;40.03;100414.56;5454350;26;20473;-50
2024/04/23 11:02:58;;;;;;;0.30;0.20;;;;;;;11.72;40.75;100411.03;5449762;26;20521;-50
2024/04/23 11:05:31;;;;;;;0.30;0.20;;;;;;;11.72;41.93;100419.91;5454062;26;20474;-50
2024/04/23 11:08:06;;;;;;;0.30;0.20;;;;;;;11.31;39.85;100414.97;5422311;26;20479;-50
2024/04/23 11:10:50;;;;;;;0.30;0.20;;;;;;;11.65;40.31;100398.81;5408961;26;20490;-50
2024/04/23 11:13:35;;;;;;;0.30;0.20;;;;;;;11.74;40.81;100401.22;5423694;26;20481;-50
2024/04/23 11:16:14;;;;;;;0.30;0.30;;;;;;;11.94;39.88;100390.84;5454318;26;20481;-50
2024/04/23 11:18:42;;;;;;;0.30;0.20;;;;;;;12.16;40.17;100383.88;5454212;26;20501;-50
2024/04/23 11:21:10;;;;;;;0.30;0.20;;;;;;;11.43;40.52;100386.19;5453885;26;20522;-50
2024/04/23 11:23:39;;;;;;;0.30;0.20;;;;;;;11.67;40.16;100383.69;5453949;26;20607;-50
2024/04/23 11:26:09;;;;;;;0.30;0.20;;;;;;;11.97;40.96;100377.41;5452736;26;20478;-50
2024/04/23 11:28:39;;;;;;;0.30;0.20;;;;;;;11.91;40.66;100382.06;5453929;26;20482;-50
2024/04/23 11:31:06;;;;;;;0.30;0.20;;;;;;;11.48;39.15;100381.59;5453722;26;20490;-48
2024/04/23 11:33:34;;;;;;;0.30;0.20;;;;;;;11.51;39.73;100368.22;5437356;26;20490;-48
2024/04/23 11:36:02;;;;;;;0.30;0.20;;;;;;;11.52;39.98;100363.75;5453407;26;20481;-47
2024/04/23 11:38:42;;;;;;;0.30;0.20;;;;;;;11.88;40.58;100348.41;5453726;26;20474;-48
2024/04/23 11:41:14;;;;;;;0.30;0.20;;;;;;;12.61;39.69;100351.22;5453590;26;20473;-48